Time;durP1;ratioP1;P1;durP2;ratioP2;P2;SDS_P1;SDS_P2;PMS_P1;PMS_P2;Temp;Humidity;BMP_temperature;BMP_pressure;BME280_temperature;BME280_humidity;BME280_pressure;Samples;Min_cycle;Max_cycle;Signal;HPM_P1;HPM_P2
2023/06/30 00:01:31;;;;;;;11.60;6.00;;;;;;;;;;5092346;28;20600;-76
2023/06/30 00:03:59;;;;;;;7.10;6.10;;;;;;;;;;5092435;28;20490;-77
2023/06/30 00:06:26;;;;;;;9.33;6.50;;;;;;;;;;5093212;28;20455;-77
2023/06/30 00:08:55;;;;;;;6.17;5.67;;;;;;;;;;5095935;28;20459;-76
2023/06/30 00:11:23;;;;;;;14.53;6.03;;;;;;;;;;5096085;28;20497;-77
2023/06/30 00:13:52;;;;;;;7.53;6.73;;;;;;;;;;5096026;28;20541;-76
2023/06/30 00:16:19;;;;;;;6.20;5.47;;;;;;;;;;5095950;28;20453;-77
2023/06/30 00:18:46;;;;;;;8.10;5.97;;;;;;;;;;5095974;28;20451;-77
2023/06/30 00:21:13;;;;;;;7.30;6.23;;;;;;;;;;5095885;28;20469;-76
2023/06/30 00:23:40;;;;;;;7.87;5.93;;;;;;;;;;5095815;28;20486;-76
2023/06/30 00:26:08;;;;;;;7.87;5.80;;;;;;;;;;5095804;28;20950;-76
2023/06/30 00:28:36;;;;;;;13.73;6.07;;;;;;;;;;5095563;28;20462;-77
2023/06/30 00:31:03;;;;;;;8.50;5.87;;;;;;;;;;5095730;28;20990;-76
2023/06/30 00:33:30;;;;;;;8.60;6.03;;;;;;;;;;5095702;28;20525;-76
2023/06/30 00:35:57;;;;;;;8.33;5.53;;;;;;;;;;5095815;28;20447;-77
2023/06/30 00:38:24;;;;;;;7.00;5.47;;;;;;;;;;5095402;28;20458;-77
2023/06/30 00:40:51;;;;;;;9.37;5.90;;;;;;;;;;5095598;28;20467;-76
2023/06/30 00:43:20;;;;;;;6.30;5.70;;;;;;;;;;5095502;28;20850;-76
2023/06/30 00:45:47;;;;;;;6.27;5.63;;;;;;;;;;5095372;28;20521;-76
2023/06/30 00:48:17;;;;;;;10.70;5.90;;;;;;;;;;5095253;28;20450;-76
2023/06/30 00:50:44;;;;;;;5.60;5.10;;;;;;;;;;5095326;28;20471;-76
2023/06/30 00:53:12;;;;;;;6.07;5.57;;;;;;;;;;5095374;28;20497;-77
2023/06/30 00:55:40;;;;;;;6.97;5.60;;;;;;;;;;5095324;28;21001;-77
2023/06/30 00:58:07;;;;;;;6.10;5.10;;;;;;;;;;5095029;28;20930;-77
2023/06/30 01:00:35;;;;;;;7.00;5.80;;;;;;;;;;5095031;28;20466;-76
2023/06/30 01:03:07;;;;;;;8.43;6.47;;;;;;;;;;5095162;28;20994;-76
2023/06/30 01:05:37;;;;;;;7.13;5.70;;;;;;;;;;5095014;28;20450;-76
2023/06/30 01:08:09;;;;;;;6.93;6.33;;;;;;;;;;5094947;28;20450;-76
2023/06/30 01:10:36;;;;;;;8.07;6.43;;;;;;;;;;5094788;28;21014;-76
2023/06/30 01:13:04;;;;;;;15.80;6.53;;;;;;;;;;5095063;28;20442;-76
2023/06/30 01:15:32;;;;;;;7.43;6.73;;;;;;;;;;5094742;28;20465;-76
2023/06/30 01:18:01;;;;;;;6.73;6.03;;;;;;;;;;5095065;28;20446;-76
2023/06/30 01:20:32;;;;;;;8.30;7.03;;;;;;;;;;5094569;28;20979;-76
2023/06/30 01:23:03;;;;;;;7.60;6.80;;;;;;;;;;5094967;28;20470;-76
2023/06/30 01:25:31;;;;;;;7.60;6.77;;;;;;;;;;5094269;28;20462;-76
2023/06/30 01:27:59;;;;;;;10.57;6.90;;;;;;;;;;5094552;28;20462;-76
2023/06/30 01:30:29;;;;;;;10.60;8.23;;;;;;;;;;5094425;28;20478;-76
2023/06/30 01:32:58;;;;;;;7.30;6.70;;;;;;;;;;5094902;28;20964;-76
2023/06/30 01:35:26;;;;;;;6.93;6.33;;;;;;;;;;5094443;28;20878;-76
2023/06/30 01:37:53;;;;;;;6.23;5.50;;;;;;;;;;5094315;28;20454;-76
2023/06/30 01:40:21;;;;;;;17.03;6.60;;;;;;;;;;5094325;28;20467;-76
2023/06/30 01:42:49;;;;;;;6.33;5.83;;;;;;;;;;5094307;28;20450;-76
2023/06/30 01:45:17;;;;;;;6.73;6.00;;;;;;;;;;5094366;28;20439;-76
2023/06/30 01:47:44;;;;;;;6.40;5.80;;;;;;;;;;5093946;28;20461;-76
2023/06/30 01:50:12;;;;;;;7.17;6.47;;;;;;;;;;5094270;28;20475;-76
2023/06/30 01:52:40;;;;;;;7.67;6.53;;;;;;;;;;5094024;28;20445;-76
2023/06/30 01:55:08;;;;;;;7.40;6.70;;;;;;;;;;5094090;28;20455;-76
2023/06/30 01:57:35;;;;;;;6.37;5.77;;;;;;;;;;5093932;28;20451;-76
2023/06/30 02:00:03;;;;;;;9.63;6.63;;;;;;;;;;5094026;28;20975;-76
2023/06/30 02:02:30;;;;;;;7.27;6.20;;;;;;;;;;5093855;28;21072;-76
2023/06/30 02:04:57;;;;;;;11.53;7.30;;;;;;;;;;5093800;28;20486;-76
2023/06/30 02:07:24;;;;;;;6.30;5.77;;;;;;;;;;5093767;28;20458;-76
2023/06/30 02:09:52;;;;;;;7.30;6.60;;;;;;;;;;5093734;28;20481;-76
2023/06/30 02:12:20;;;;;;;7.53;6.73;;;;;;;;;;5093923;28;20470;-76
2023/06/30 02:14:47;;;;;;;9.80;7.90;;;;;;;;;;5093886;28;20447;-76
2023/06/30 02:17:14;;;;;;;10.70;8.83;;;;;;;;;;5093483;28;20457;-76
2023/06/30 02:19:41;;;;;;;8.63;7.80;;;;;;;;;;5093526;28;20457;-76
2023/06/30 02:22:08;;;;;;;11.50;7.77;;;;;;;;;;5093627;28;20447;-76
2023/06/30 02:24:35;;;;;;;7.90;7.20;;;;;;;;;;5093063;28;20561;-75
2023/06/30 02:27:04;;;;;;;9.20;7.17;;;;;;;;;;5093414;28;20465;-76
2023/06/30 02:29:32;;;;;;;11.93;8.43;;;;;;;;;;5092938;28;20449;-76
2023/06/30 02:31:59;;;;;;;9.77;8.93;;;;;;;;;;5093562;28;20458;-76
2023/06/30 02:34:26;;;;;;;9.10;7.50;;;;;;;;;;5093399;28;20553;-76
2023/06/30 02:36:53;;;;;;;9.53;6.73;;;;;;;;;;5093180;28;20457;-76
2023/06/30 02:39:20;;;;;;;7.03;6.40;;;;;;;;;;5093428;28;20939;-76
2023/06/30 02:41:47;;;;;;;9.87;6.30;;;;;;;;;;5093265;28;20467;-76
2023/06/30 02:44:16;;;;;;;8.17;7.37;;;;;;;;;;5093243;28;20497;-76
2023/06/30 02:46:43;;;;;;;7.17;6.57;;;;;;;;;;5093169;28;20451;-76
2023/06/30 02:49:10;;;;;;;7.30;6.50;;;;;;;;;;5093290;28;20446;-76
2023/06/30 02:51:37;;;;;;;9.30;6.77;;;;;;;;;;5093054;28;20478;-76
2023/06/30 02:54:04;;;;;;;11.70;7.20;;;;;;;;;;5093263;28;20435;-76
2023/06/30 02:56:31;;;;;;;7.30;6.60;;;;;;;;;;5092991;28;20451;-76
2023/06/30 02:58:58;;;;;;;8.67;6.40;;;;;;;;;;5092827;28;20463;-76
2023/06/30 03:01:27;;;;;;;8.83;6.20;;;;;;;;;;5092905;28;20473;-76
2023/06/30 03:03:54;;;;;;;6.77;6.17;;;;;;;;;;5093171;28;20501;-76
2023/06/30 03:06:23;;;;;;;7.37;6.53;;;;;;;;;;5093082;28;20459;-76
2023/06/30 03:08:50;;;;;;;11.50;10.40;;;;;;;;;;5092791;28;20486;-76
2023/06/30 03:11:17;;;;;;;8.23;7.17;;;;;;;;;;5092381;28;20477;-76
2023/06/30 03:13:46;;;;;;;10.20;7.13;;;;;;;;;;5092634;28;20600;-76
2023/06/30 03:16:13;;;;;;;7.30;5.93;;;;;;;;;;5092923;28;21016;-76
2023/06/30 03:18:42;;;;;;;6.93;6.33;;;;;;;;;;5092148;28;20830;-76
2023/06/30 03:21:09;;;;;;;8.20;6.50;;;;;;;;;;5092476;28;20467;-76
2023/06/30 03:23:36;;;;;;;10.63;6.63;;;;;;;;;;5092253;28;20486;-76
2023/06/30 03:26:03;;;;;;;7.50;6.80;;;;;;;;;;5092135;28;20951;-76
2023/06/30 03:28:30;;;;;;;8.23;7.43;;;;;;;;;;5092190;28;20480;-76
2023/06/30 03:30:57;;;;;;;9.03;8.13;;;;;;;;;;5092413;28;20481;-76
2023/06/30 03:33:24;;;;;;;8.67;7.87;;;;;;;;;;5092480;28;20449;-76
2023/06/30 03:35:53;;;;;;;8.07;7.27;;;;;;;;;;5092503;28;20435;-76
2023/06/30 03:38:20;;;;;;;9.70;7.37;;;;;;;;;;5092012;28;20906;-76
2023/06/30 03:40:47;;;;;;;8.83;6.27;;;;;;;;;;5092223;28;20466;-76
2023/06/30 03:43:14;;;;;;;8.87;7.30;;;;;;;;;;5095990;28;20798;-76
2023/06/30 03:45:41;;;;;;;8.43;7.63;;;;;;;;;;5095340;28;20494;-76
2023/06/30 03:48:08;;;;;;;9.03;7.23;;;;;;;;;;5096168;28;20919;-76
2023/06/30 03:50:36;;;;;;;11.27;7.60;;;;;;;;;;5095861;28;20490;-76
2023/06/30 03:53:04;;;;;;;7.33;6.73;;;;;;;;;;5096153;28;20446;-76
2023/06/30 03:55:31;;;;;;;8.53;7.10;;;;;;;;;;5095977;28;20458;-76
2023/06/30 03:57:58;;;;;;;9.00;6.37;;;;;;;;;;5094719;28;20880;-76
2023/06/30 04:00:25;;;;;;;7.37;6.50;;;;;;;;;;5095236;28;20990;-76
2023/06/30 04:02:53;;;;;;;9.00;6.80;;;;;;;;;;5095692;28;20472;-76
2023/06/30 04:05:20;;;;;;;12.03;6.27;;;;;;;;;;5095235;28;20498;-76
2023/06/30 04:07:47;;;;;;;7.77;6.00;;;;;;;;;;5095490;28;20900;-76
2023/06/30 04:10:15;;;;;;;7.67;6.83;;;;;;;;;;5095604;28;20485;-77
2023/06/30 04:12:43;;;;;;;7.23;6.53;;;;;;;;;;5095632;28;21027;-76
2023/06/30 04:15:11;;;;;;;8.40;6.00;;;;;;;;;;5095544;28;20447;-76
2023/06/30 04:17:38;;;;;;;6.47;5.77;;;;;;;;;;5095150;28;20465;-76
2023/06/30 04:20:09;;;;;;;8.87;7.10;;;;;;;;;;5094956;28;20471;-76
2023/06/30 04:22:37;;;;;;;9.10;7.80;;;;;;;;;;5095295;28;20467;-76
2023/06/30 04:25:05;;;;;;;8.77;7.83;;;;;;;;;;5094694;28;20539;-76
2023/06/30 04:27:34;;;;;;;8.03;7.07;;;;;;;;;;5095207;28;20817;-76
2023/06/30 04:30:03;;;;;;;9.03;8.13;;;;;;;;;;5095558;28;20470;-76
2023/06/30 04:32:30;;;;;;;10.30;7.87;;;;;;;;;;5094814;28;20470;-76
2023/06/30 04:34:58;;;;;;;12.43;7.93;;;;;;;;;;5094691;28;20466;-76
2023/06/30 04:37:28;;;;;;;19.47;17.40;;;;;;;;;;5094763;28;20463;-76
2023/06/30 04:39:56;;;;;;;14.73;8.50;;;;;;;;;;5094755;28;20490;-76
2023/06/30 04:42:23;;;;;;;7.60;6.73;;;;;;;;;;5094508;28;20481;-76
2023/06/30 04:44:51;;;;;;;12.57;6.33;;;;;;;;;;5094352;28;20490;-76
2023/06/30 04:47:19;;;;;;;11.30;6.67;;;;;;;;;;5094507;28;20443;-76
2023/06/30 04:49:46;;;;;;;5.30;4.90;;;;;;;;;;5094579;28;20466;-76
2023/06/30 04:52:13;;;;;;;6.30;5.80;;;;;;;;;;5094272;28;20447;-76
2023/06/30 04:54:40;;;;;;;6.73;5.50;;;;;;;;;;5094602;28;20816;-76
2023/06/30 04:57:07;;;;;;;6.07;5.50;;;;;;;;;;5094160;28;20451;-76
2023/06/30 04:59:34;;;;;;;6.40;5.47;;;;;;;;;;5092343;22;20908;-75
2023/06/30 05:02:03;;;;;;;9.33;6.17;;;;;;;;;;5074087;28;20456;-76
2023/06/30 05:04:30;;;;;;;5.60;5.10;;;;;;;;;;5074090;28;20991;-75
2023/06/30 05:06:57;;;;;;;6.20;5.70;;;;;;;;;;5073925;28;20873;-76
2023/06/30 05:09:25;;;;;;;6.17;5.57;;;;;;;;;;5073843;28;20456;-75
2023/06/30 05:11:52;;;;;;;6.70;6.00;;;;;;;;;;5074042;28;20478;-75
2023/06/30 05:14:19;;;;;;;9.33;7.83;;;;;;;;;;5073995;28;20954;-75
2023/06/30 05:16:47;;;;;;;10.17;6.73;;;;;;;;;;5073847;28;20460;-77
2023/06/30 05:19:15;;;;;;;6.90;6.10;;;;;;;;;;5074237;28;20447;-76
2023/06/30 05:21:42;;;;;;;6.10;5.60;;;;;;;;;;5073996;28;20472;-76
2023/06/30 05:24:09;;;;;;;7.40;5.80;;;;;;;;;;5073561;28;20455;-76
2023/06/30 05:26:37;;;;;;;9.57;5.77;;;;;;;;;;5073526;28;20793;-76
2023/06/30 05:29:06;;;;;;;8.27;6.20;;;;;;;;;;5073582;28;20448;-76
2023/06/30 05:31:33;;;;;;;10.13;5.50;;;;;;;;;;5073453;28;20471;-76
2023/06/30 05:34:00;;;;;;;7.90;6.70;;;;;;;;;;5073613;28;20452;-76
2023/06/30 05:36:30;;;;;;;6.90;6.20;;;;;;;;;;5073369;28;20955;-76
2023/06/30 05:38:57;;;;;;;7.27;6.53;;;;;;;;;;5073756;28;20448;-76
2023/06/30 05:41:25;;;;;;;7.23;6.63;;;;;;;;;;5073201;28;20476;-75
2023/06/30 05:43:52;;;;;;;8.33;6.13;;;;;;;;;;5073407;28;20462;-75
2023/06/30 05:46:19;;;;;;;8.07;6.00;;;;;;;;;;5073281;28;20494;-76
2023/06/30 05:48:46;;;;;;;8.03;5.97;;;;;;;;;;5073095;28;20474;-75
2023/06/30 05:51:13;;;;;;;6.93;5.80;;;;;;;;;;5073284;28;20475;-75
2023/06/30 05:53:42;;;;;;;7.47;6.57;;;;;;;;;;5073231;28;20570;-76
2023/06/30 05:56:09;;;;;;;8.20;6.33;;;;;;;;;;5073262;28;20448;-76
2023/06/30 05:58:39;;;;;;;12.07;6.70;;;;;;;;;;5072953;28;20447;-76
2023/06/30 06:01:06;;;;;;;8.00;5.73;;;;;;;;;;5073013;28;20480;-76
2023/06/30 06:03:33;;;;;;;6.73;5.97;;;;;;;;;;5073012;28;20432;-76
2023/06/30 06:06:00;;;;;;;7.20;6.03;;;;;;;;;;5072616;28;20841;-76
2023/06/30 06:08:27;;;;;;;6.10;5.60;;;;;;;;;;5072799;28;20451;-75
2023/06/30 06:10:56;;;;;;;6.30;5.70;;;;;;;;;;5073097;28;20503;-75
2023/06/30 06:13:33;;;;;;;6.53;5.93;;;;;;;;;;5072634;28;20970;-76
2023/06/30 06:16:00;;;;;;;8.07;7.27;;;;;;;;;;5072812;28;20927;-76
2023/06/30 06:18:27;;;;;;;6.80;6.10;;;;;;;;;;5072572;28;20451;-77
2023/06/30 06:20:55;;;;;;;8.93;7.20;;;;;;;;;;5072675;28;20547;-76
2023/06/30 06:23:22;;;;;;;6.50;5.97;;;;;;;;;;5072641;28;20460;-76
2023/06/30 06:25:49;;;;;;;7.40;5.87;;;;;;;;;;5072368;28;21028;-76
2023/06/30 06:28:18;;;;;;;14.07;6.13;;;;;;;;;;5072636;28;20451;-76
2023/06/30 06:30:45;;;;;;;9.53;6.37;;;;;;;;;;5072581;28;20475;-76
2023/06/30 06:33:12;;;;;;;6.80;6.00;;;;;;;;;;5072516;28;20475;-76
2023/06/30 06:35:39;;;;;;;6.20;5.70;;;;;;;;;;5072572;28;20531;-76
2023/06/30 06:38:07;;;;;;;6.97;6.37;;;;;;;;;;5072396;28;20457;-77
2023/06/30 06:40:34;;;;;;;7.87;7.03;;;;;;;;;;5072641;28;20567;-77
2023/06/30 06:43:01;;;;;;;6.70;6.10;;;;;;;;;;5072499;28;20952;-76
2023/06/30 06:45:30;;;;;;;9.20;5.70;;;;;;;;;;5072309;28;20479;-77
2023/06/30 06:48:15;;;;;;;10.70;5.90;;;;;;;;;;5072199;28;20467;-76
2023/06/30 06:50:42;;;;;;;7.50;6.50;;;;;;;;;;5072355;28;20478;-76
2023/06/30 06:53:10;;;;;;;7.10;6.40;;;;;;;;;;5072436;28;20479;-76
2023/06/30 06:55:37;;;;;;;9.47;5.10;;;;;;;;;;5072418;28;20998;-76
2023/06/30 06:58:04;;;;;;;12.83;6.60;;;;;;;;;;5072115;28;20468;-76
2023/06/30 07:00:32;;;;;;;10.40;5.80;;;;;;;;;;5071922;28;21018;-77
2023/06/30 07:02:59;;;;;;;7.53;5.47;;;;;;;;;;5072434;28;20462;-75
2023/06/30 07:05:26;;;;;;;6.20;5.60;;;;;;;;;;5071991;28;20483;-75
2023/06/30 07:07:54;;;;;;;7.50;5.90;;;;;;;;;;5072364;28;20454;-75
2023/06/30 07:10:21;;;;;;;6.40;5.53;;;;;;;;;;5072064;28;20475;-75
2023/06/30 07:12:48;;;;;;;5.53;5.13;;;;;;;;;;5072252;28;20892;-75
2023/06/30 07:15:15;;;;;;;6.03;5.53;;;;;;;;;;5072771;28;20448;-75
2023/06/30 07:17:43;;;;;;;6.30;5.70;;;;;;;;;;5076141;28;20455;-75
2023/06/30 07:20:11;;;;;;;5.87;5.00;;;;;;;;;;5076424;28;20482;-75
2023/06/30 07:22:38;;;;;;;8.07;5.07;;;;;;;;;;5075882;28;20451;-75
2023/06/30 07:25:07;;;;;;;10.40;5.83;;;;;;;;;;5075842;28;20975;-75
2023/06/30 07:27:34;;;;;;;7.70;5.63;;;;;;;;;;5075829;28;20477;-76
2023/06/30 07:30:01;;;;;;;8.60;5.43;;;;;;;;;;5076412;28;21010;-75
2023/06/30 07:32:28;;;;;;;19.00;4.97;;;;;;;;;;5076013;28;20455;-75
2023/06/30 07:34:56;;;;;;;9.97;4.90;;;;;;;;;;5075978;28;20459;-75
2023/06/30 07:37:24;;;;;;;7.93;4.40;;;;;;;;;;5076155;28;20439;-75
2023/06/30 07:39:51;;;;;;;7.40;5.13;;;;;;;;;;5076069;28;20987;-75
2023/06/30 07:42:18;;;;;;;7.47;5.00;;;;;;;;;;5075892;28;20967;-75
2023/06/30 07:44:46;;;;;;;7.03;4.80;;;;;;;;;;5075681;28;20455;-75
2023/06/30 07:47:13;;;;;;;5.50;4.87;;;;;;;;;;5075702;28;20452;-75
2023/06/30 07:49:40;;;;;;;9.30;4.30;;;;;;;;;;5075963;28;20813;-75
2023/06/30 07:52:09;;;;;;;7.70;4.30;;;;;;;;;;5075550;28;20458;-75
2023/06/30 07:54:36;;;;;;;5.20;4.10;;;;;;;;;;5075555;28;20447;-75
2023/06/30 07:57:03;;;;;;;7.70;4.47;;;;;;;;;;5075666;28;20958;-75
2023/06/30 07:59:31;;;;;;;6.23;5.63;;;;;;;;;;5075385;28;20479;-75
2023/06/30 08:01:58;;;;;;;6.57;4.97;;;;;;;;;;5075281;28;20467;-75
2023/06/30 08:04:25;;;;;;;6.23;5.30;;;;;;;;;;5075268;28;20550;-75
2023/06/30 08:06:54;;;;;;;7.30;4.90;;;;;;;;;;5074883;28;20487;-74
2023/06/30 08:09:22;;;;;;;10.03;5.23;;;;;;;;;;5075113;28;20459;-75
2023/06/30 08:11:49;;;;;;;4.83;4.43;;;;;;;;;;5075240;28;20475;-74
2023/06/30 08:14:17;;;;;;;6.70;5.27;;;;;;;;;;5075013;28;20474;-74
2023/06/30 08:16:44;;;;;;;6.00;5.00;;;;;;;;;;5075314;28;20451;-74
2023/06/30 08:19:11;;;;;;;8.33;4.57;;;;;;;;;;5074998;28;20454;-74
2023/06/30 08:21:38;;;;;;;7.23;4.80;;;;;;;;;;5074920;28;20468;-74
2023/06/30 08:24:05;;;;;;;7.70;4.93;;;;;;;;;;5074814;28;20761;-74
2023/06/30 08:26:34;;;;;;;8.67;5.20;;;;;;;;;;5074723;28;20478;-75
2023/06/30 08:29:01;;;;;;;6.87;5.57;;;;;;;;;;5074154;28;20475;-76
2023/06/30 08:31:28;;;;;;;5.90;5.30;;;;;;;;;;5074706;28;21049;-75
2023/06/30 08:33:55;;;;;;;10.30;7.10;;;;;;;;;;5074592;28;20455;-75
2023/06/30 08:36:24;;;;;;;6.33;5.50;;;;;;;;;;5074487;28;20804;-75
2023/06/30 08:38:51;;;;;;;7.00;5.97;;;;;;;;;;5074444;28;20817;-74
2023/06/30 08:41:19;;;;;;;7.70;6.00;;;;;;;;;;5074574;28;20476;-74
2023/06/30 08:43:48;;;;;;;13.70;5.97;;;;;;;;;;5074824;28;20451;-75
2023/06/30 08:46:16;;;;;;;6.63;6.03;;;;;;;;;;5074349;28;20486;-75
2023/06/30 08:48:43;;;;;;;8.60;5.73;;;;;;;;;;5074335;28;20505;-74
2023/06/30 08:51:11;;;;;;;7.70;6.10;;;;;;;;;;5074202;28;20478;-74
2023/06/30 08:53:38;;;;;;;7.13;6.47;;;;;;;;;;5074362;28;20454;-75
2023/06/30 08:56:07;;;;;;;7.00;6.30;;;;;;;;;;5074475;28;20942;-74
2023/06/30 08:58:34;;;;;;;7.10;5.80;;;;;;;;;;5074203;28;20543;-74
2023/06/30 09:01:02;;;;;;;11.83;6.10;;;;;;;;;;5074013;28;20526;-74
2023/06/30 09:03:30;;;;;;;7.40;6.43;;;;;;;;;;5074324;28;20447;-75
2023/06/30 09:06:00;;;;;;;8.93;6.70;;;;;;;;;;5074299;28;20570;-75
2023/06/30 09:08:30;;;;;;;7.10;6.37;;;;;;;;;;5073963;28;20826;-75
2023/06/30 09:10:57;;;;;;;5.80;5.23;;;;;;;;;;5074044;28;20471;-75
2023/06/30 09:13:25;;;;;;;8.30;6.20;;;;;;;;;;5073806;28;20467;-74
2023/06/30 09:15:52;;;;;;;7.70;7.00;;;;;;;;;;5074144;28;20444;-74
2023/06/30 09:18:21;;;;;;;7.67;6.97;;;;;;;;;;5081438;22;20511;-76
2023/06/30 09:20:49;;;;;;;11.37;10.27;;;;;;;;;;5074224;28;20556;-76
2023/06/30 09:23:16;;;;;;;8.43;7.53;;;;;;;;;;5074070;28;20822;-77
2023/06/30 09:25:43;;;;;;;7.60;6.67;;;;;;;;;;5073405;28;20496;-76
2023/06/30 09:28:11;;;;;;;8.30;6.27;;;;;;;;;;5073677;28;20459;-76
2023/06/30 09:30:41;;;;;;;12.10;7.17;;;;;;;;;;5073578;28;20562;-76
2023/06/30 09:33:09;;;;;;;8.83;6.97;;;;;;;;;;5073948;28;20759;-76
2023/06/30 09:35:41;;;;;;;8.77;7.97;;;;;;;;;;5073653;28;20855;-76
2023/06/30 09:38:12;;;;;;;11.57;7.87;;;;;;;;;;5073462;28;20460;-76
2023/06/30 09:40:39;;;;;;;9.77;8.43;;;;;;;;;;5072315;28;20532;-76
2023/06/30 09:43:07;;;;;;;9.90;7.97;;;;;;;;;;5073570;28;20474;-76
2023/06/30 09:45:35;;;;;;;9.07;6.80;;;;;;;;;;5073264;28;20559;-76
2023/06/30 09:48:02;;;;;;;8.13;7.33;;;;;;;;;;5073347;28;20436;-76
2023/06/30 09:50:32;;;;;;;9.30;8.20;;;;;;;;;;5073485;28;20472;-77
2023/06/30 09:53:02;;;;;;;9.43;8.47;;;;;;;;;;5074126;28;20527;-76
2023/06/30 09:55:29;;;;;;;8.27;7.47;;;;;;;;;;5073716;28;20451;-76
2023/06/30 09:57:57;;;;;;;9.40;8.47;;;;;;;;;;5073821;28;20945;-76
2023/06/30 10:00:28;;;;;;;9.23;8.33;;;;;;;;;;5073724;28;20578;-76
2023/06/30 10:03:04;;;;;;;14.20;9.93;;;;;;;;;;5073982;28;20448;-76
2023/06/30 10:05:31;;;;;;;9.20;8.40;;;;;;;;;;5073771;28;20435;-76
2023/06/30 10:07:59;;;;;;;15.30;11.63;;;;;;;;;;5072758;28;20452;-76
2023/06/30 10:10:28;;;;;;;9.50;8.53;;;;;;;;;;5073909;28;20486;-77
2023/06/30 10:12:56;;;;;;;10.20;8.13;;;;;;;;;;5073881;28;21053;-77
2023/06/30 10:15:23;;;;;;;15.90;13.67;;;;;;;;;;5074382;28;20440;-77
2023/06/30 10:17:51;;;;;;;11.80;9.20;;;;;;;;;;5073599;28;20466;-77
2023/06/30 10:20:18;;;;;;;14.17;9.50;;;;;;;;;;5073811;28;20472;-77
2023/06/30 10:22:45;;;;;;;12.57;10.53;;;;;;;;;;5072782;28;20823;-78
2023/06/30 10:25:14;;;;;;;16.30;11.87;;;;;;;;;;5073289;28;20455;-75
2023/06/30 10:27:43;;;;;;;14.00;11.10;;;;;;;;;;5074363;28;20487;-77
2023/06/30 10:30:12;;;;;;;11.97;10.27;;;;;;;;;;5074499;28;20479;-78
2023/06/30 10:32:40;;;;;;;11.90;10.03;;;;;;;;;;5075615;28;20443;-78
2023/06/30 10:35:07;;;;;;;11.37;10.17;;;;;;;;;;5078194;28;20432;-78
2023/06/30 10:37:35;;;;;;;11.57;10.00;;;;;;;;;;5076919;28;20979;-78
2023/06/30 10:40:02;;;;;;;11.93;10.60;;;;;;;;;;5076960;28;20501;-78
2023/06/30 10:42:29;;;;;;;14.20;11.13;;;;;;;;;;5074900;28;20455;-77
2023/06/30 10:45:00;;;;;;;15.17;11.40;;;;;;;;;;5075087;28;20444;-77
2023/06/30 10:47:28;;;;;;;13.60;12.20;;;;;;;;;;5074591;28;20491;-77
2023/06/30 10:49:56;;;;;;;17.80;12.63;;;;;;;;;;5074967;28;20999;-77
2023/06/30 10:52:26;;;;;;;16.97;12.00;;;;;;;;;;5073873;28;20817;-77
2023/06/30 10:54:54;;;;;;;19.67;16.63;;;;;;;;;;5073778;28;20455;-76
2023/06/30 10:57:22;;;;;;;14.17;12.60;;;;;;;;;;5073790;28;20817;-77
2023/06/30 11:00:03;;;;;;;15.60;12.70;;;;;;;;;;5074182;28;20541;-77
2023/06/30 11:02:34;;;;;;;15.50;12.27;;;;;;;;;;5074350;28;20475;-77
2023/06/30 11:05:19;;;;;;;13.30;11.93;;;;;;;;;;5074345;28;20447;-77
2023/06/30 11:07:48;;;;;;;15.60;13.90;;;;;;;;;;5073881;28;20483;-77
2023/06/30 11:10:26;;;;;;;15.37;13.70;;;;;;;;;;5072000;28;20471;-75
2023/06/30 11:12:54;;;;;;;13.80;12.43;;;;;;;;;;5072225;28;20939;-75
2023/06/30 11:15:28;;;;;;;16.13;14.43;;;;;;;;;;5066696;28;20464;-75
2023/06/30 11:18:03;;;;;;;15.27;13.73;;;;;;;;;;5049778;28;20963;-75
2023/06/30 11:20:31;;;;;;;16.37;14.03;;;;;;;;;;5050362;28;20487;-75
2023/06/30 11:23:00;;;;;;;17.13;13.53;;;;;;;;;;5050291;28;20456;-75
2023/06/30 11:25:28;;;;;;;16.10;12.97;;;;;;;;;;5049060;28;20957;-75
2023/06/30 11:27:55;;;;;;;18.17;15.17;;;;;;;;;;5050073;28;20484;-75
2023/06/30 11:30:23;;;;;;;18.80;15.47;;;;;;;;;;5049904;28;20493;-75
2023/06/30 11:32:54;;;;;;;14.30;12.90;;;;;;;;;;5050481;28;20574;-75
2023/06/30 11:35:23;;;;;;;15.43;13.07;;;;;;;;;;5049325;28;20483;-74
2023/06/30 11:37:50;;;;;;;15.43;13.90;;;;;;;;;;5050043;28;20475;-75
2023/06/30 11:40:18;;;;;;;17.50;13.57;;;;;;;;;;5051142;28;20472;-74
2023/06/30 11:42:45;;;;;;;21.57;13.70;;;;;;;;;;5051030;28;20453;-75
2023/06/30 11:45:16;;;;;;;13.23;11.80;;;;;;;;;;5051605;28;20457;-75
2023/06/30 11:47:46;;;;;;;14.87;13.37;;;;;;;;;;5051469;28;20986;-75
2023/06/30 11:50:14;;;;;;;18.63;15.13;;;;;;;;;;5051678;28;20488;-75
2023/06/30 11:52:43;;;;;;;16.40;14.80;;;;;;;;;;5051449;28;20460;-75
2023/06/30 11:55:11;;;;;;;16.17;14.50;;;;;;;;;;5051505;28;20448;-75
2023/06/30 11:57:39;;;;;;;18.27;15.80;;;;;;;;;;5051329;28;20468;-75
2023/06/30 12:00:10;;;;;;;17.90;15.53;;;;;;;;;;5051592;28;20483;-75
2023/06/30 12:02:37;;;;;;;15.97;14.27;;;;;;;;;;5052486;28;20457;-75
2023/06/30 12:05:11;;;;;;;16.37;14.60;;;;;;;;;;5055288;28;20462;-75
2023/06/30 12:07:39;;;;;;;15.47;13.83;;;;;;;;;;5055349;28;20475;-75
2023/06/30 12:10:08;;;;;;;13.10;11.80;;;;;;;;;;5055251;28;21003;-75
2023/06/30 12:12:36;;;;;;;13.70;12.40;;;;;;;;;;5055101;28;20551;-76
2023/06/30 12:15:04;;;;;;;14.20;11.93;;;;;;;;;;5055358;28;20555;-73
2023/06/30 12:17:31;;;;;;;17.50;12.27;;;;;;;;;;5054810;28;20449;-73
2023/06/30 12:19:58;;;;;;;14.10;11.33;;;;;;;;;;5054964;28;20464;-75
2023/06/30 12:22:27;;;;;;;16.00;12.27;;;;;;;;;;5054882;28;20463;-75
2023/06/30 12:24:57;;;;;;;13.80;12.30;;;;;;;;;;5054736;28;20482;-75
2023/06/30 12:27:27;;;;;;;14.00;12.47;;;;;;;;;;5054536;28;20843;-75
2023/06/30 12:29:54;;;;;;;11.33;10.23;;;;;;;;;;5054864;28;20907;-75
2023/06/30 12:32:22;;;;;;;14.23;11.13;;;;;;;;;;5054579;28;20449;-75
2023/06/30 12:34:51;;;;;;;13.70;11.50;;;;;;;;;;5054835;28;20514;-75
2023/06/30 12:37:19;;;;;;;12.27;11.07;;;;;;;;;;5054398;28;20868;-76
2023/06/30 12:39:46;;;;;;;12.90;10.67;;;;;;;;;;5054434;28;20898;-74
2023/06/30 12:42:14;;;;;;;13.03;11.43;;;;;;;;;;5054932;28;20502;-75
2023/06/30 12:44:43;;;;;;;13.50;10.80;;;;;;;;;;5054606;28;20931;-76
2023/06/30 12:47:10;;;;;;;10.90;9.67;;;;;;;;;;5054284;28;20493;-76
2023/06/30 12:49:37;;;;;;;11.23;9.00;;;;;;;;;;5054440;28;20933;-75
2023/06/30 12:52:05;;;;;;;14.37;9.90;;;;;;;;;;5054733;28;20463;-76
2023/06/30 12:54:32;;;;;;;10.63;9.53;;;;;;;;;;5054126;28;20452;-76
2023/06/30 12:56:59;;;;;;;13.23;11.00;;;;;;;;;;5054454;28;20449;-76
2023/06/30 12:59:26;;;;;;;10.93;9.70;;;;;;;;;;5054111;28;20459;-76
2023/06/30 13:01:54;;;;;;;10.40;9.30;;;;;;;;;;5054336;28;20476;-76
2023/06/30 13:04:22;;;;;;;11.97;10.07;;;;;;;;;;5054243;28;20457;-76
2023/06/30 13:06:49;;;;;;;10.90;9.73;;;;;;;;;;5054086;28;20491;-76
2023/06/30 13:09:16;;;;;;;9.23;8.33;;;;;;;;;;5054048;28;20511;-77
2023/06/30 13:11:43;;;;;;;9.80;8.47;;;;;;;;;;5054320;28;21090;-75
2023/06/30 13:14:10;;;;;;;14.70;11.30;;;;;;;;;;5054180;28;20805;-74
2023/06/30 13:16:38;;;;;;;10.00;8.83;;;;;;;;;;5054177;28;20456;-74
2023/06/30 13:19:06;;;;;;;12.90;7.83;;;;;;;;;;5053668;28;20508;-77
2023/06/30 13:21:33;;;;;;;8.50;7.60;;;;;;;;;;5066210;28;20486;-76
2023/06/30 13:24:00;;;;;;;7.80;6.40;;;;;;;;;;5072529;28;20836;-76
2023/06/30 13:26:28;;;;;;;7.87;7.10;;;;;;;;;;5072662;28;20459;-75
2023/06/30 13:28:55;;;;;;;8.20;7.40;;;;;;;;;;5072701;28;20444;-75
2023/06/30 13:31:22;;;;;;;8.10;6.40;;;;;;;;;;5072411;28;20840;-76
2023/06/30 13:33:49;;;;;;;8.50;7.17;;;;;;;;;;5074241;28;20794;-76
2023/06/30 13:36:18;;;;;;;8.30;7.37;;;;;;;;;;5073056;28;20474;-76
2023/06/30 13:38:46;;;;;;;8.77;7.87;;;;;;;;;;5073613;28;20460;-77
2023/06/30 13:41:13;;;;;;;12.77;7.07;;;;;;;;;;5073899;28;20759;-77
2023/06/30 13:43:40;;;;;;;7.80;5.90;;;;;;;;;;5073956;28;20459;-78
2023/06/30 13:46:08;;;;;;;7.60;6.27;;;;;;;;;;5074518;28;20580;-78
2023/06/30 13:48:35;;;;;;;8.27;6.70;;;;;;;;;;5073771;28;20523;-77
2023/06/30 13:51:02;;;;;;;10.27;7.00;;;;;;;;;;5073923;28;20494;-77
2023/06/30 13:53:30;;;;;;;8.57;7.70;;;;;;;;;;5074385;28;20455;-78
2023/06/30 13:55:59;;;;;;;9.30;7.33;;;;;;;;;;5073620;28;20966;-77
2023/06/30 13:58:26;;;;;;;9.53;8.57;;;;;;;;;;5074138;28;20446;-78
2023/06/30 14:00:53;;;;;;;8.27;7.47;;;;;;;;;;5074286;28;20471;-77
2023/06/30 14:03:20;;;;;;;8.87;6.43;;;;;;;;;;5074055;28;20816;-78
2023/06/30 14:05:49;;;;;;;8.17;6.70;;;;;;;;;;5074435;28;20458;-78
2023/06/30 14:08:16;;;;;;;14.33;7.13;;;;;;;;;;5074546;28;20523;-78
2023/06/30 14:10:44;;;;;;;10.17;6.67;;;;;;;;;;5074361;28;20482;-78
2023/06/30 14:13:12;;;;;;;7.20;6.60;;;;;;;;;;5074500;28;20542;-77
2023/06/30 14:15:39;;;;;;;10.13;7.50;;;;;;;;;;5074816;28;20451;-77
2023/06/30 14:18:06;;;;;;;7.93;7.13;;;;;;;;;;5074060;28;20470;-78
2023/06/30 14:20:33;;;;;;;9.00;8.10;;;;;;;;;;5074788;28;20476;-78
2023/06/30 14:23:00;;;;;;;8.17;7.37;;;;;;;;;;5075245;28;20459;-78
2023/06/30 14:25:27;;;;;;;8.30;7.50;;;;;;;;;;5074451;28;20462;-78
2023/06/30 14:27:56;;;;;;;8.57;7.73;;;;;;;;;;5074974;28;20499;-78
2023/06/30 14:30:28;;;;;;;11.90;7.67;;;;;;;;;;5074571;28;20811;-78
2023/06/30 14:32:55;;;;;;;7.43;6.73;;;;;;;;;;5074114;28;20447;-77
2023/06/30 14:35:23;;;;;;;9.90;6.63;;;;;;;;;;5074416;28;20485;-77
2023/06/30 14:37:50;;;;;;;7.37;6.50;;;;;;;;;;5074267;28;20443;-77
2023/06/30 14:40:18;;;;;;;9.33;6.20;;;;;;;;;;5074147;28;20829;-77